createdAt,value
2019-04-20T00:02:15.666Z,86.50
2019-04-20T00:04:41.156Z,86.64
2019-04-20T00:07:08.213Z,86.51
2019-04-20T00:09:38.723Z,86.58
2019-04-20T00:12:12.734Z,86.79
2019-04-20T00:14:36.254Z,86.51
2019-04-20T00:17:03.073Z,86.74
2019-04-20T00:19:37.496Z,86.37
2019-04-20T00:22:36.367Z,87.28
2019-04-20T00:25:20.875Z,87.73
2019-04-20T00:28:25.208Z,87.95
2019-04-20T00:30:55.735Z,87.49
2019-04-20T00:33:27.416Z,87.94
2019-04-20T00:35:40.091Z,88.21
2019-04-20T00:38:07.820Z,89.08
2019-04-20T00:40:36.090Z,89.92
2019-04-20T00:43:04.675Z,90.60
2019-04-20T00:45:35.236Z,90.50
2019-04-20T00:48:07.966Z,90.98
2019-04-20T00:50:46.964Z,91.12
2019-04-20T00:53:11.441Z,90.96
2019-04-20T00:55:27.775Z,92.28
2019-04-20T00:58:03.711Z,92.33
2019-04-20T01:00:40.815Z,92.33
2019-04-20T01:03:09.573Z,92.77
2019-04-20T01:08:27.396Z,93.34
2019-04-20T01:10:57.466Z,93.28
2019-04-20T01:13:25.192Z,92.63
2019-04-20T01:15:58.934Z,93.56
2019-04-20T01:18:21.384Z,93.42
2019-04-20T01:20:49.376Z,93.83
2019-04-20T01:23:20.765Z,94.79
2019-04-20T01:25:48.388Z,94.98
2019-04-20T01:28:32.403Z,95.78
2019-04-20T01:30:58.553Z,95.76
2019-04-20T01:33:25.951Z,95.85
2019-04-20T01:36:00.679Z,96.25
2019-04-20T01:38:26.800Z,96.56
2019-04-20T01:40:40.212Z,96.84
2019-04-20T01:43:07.995Z,96.16
2019-04-20T01:45:39.234Z,96.80
2019-04-20T01:48:06.363Z,97.07
2019-04-20T01:50:37.995Z,97.68
2019-04-20T01:53:12.770Z,98.19
2019-04-20T01:55:45.658Z,98.74
2019-04-20T01:58:30.248Z,98.23
2019-04-20T02:04:06.389Z,99.06
2019-04-20T02:06:39.863Z,98.34
2019-04-20T02:09:14.524Z,98.39
2019-04-20T02:11:41.664Z,98.24
2019-04-20T02:14:09.145Z,99.18
2019-04-20T02:16:40.795Z,99.52
2019-04-20T02:19:21.636Z,99.26
2019-04-20T02:21:46.693Z,99.77
2019-04-20T02:24:05.989Z,99.25
2019-04-20T02:26:32.318Z,100.00
2019-04-20T02:29:24.524Z,100.00
2019-04-20T02:35:07.637Z,99.92
2019-04-20T02:38:08.419Z,100.00
2019-04-20T02:40:19.187Z,100.00
2019-04-20T02:42:51.464Z,100.00
2019-04-20T02:45:57.764Z,100.00
2019-04-20T02:48:36.931Z,100.00
2019-04-20T02:51:06.599Z,100.00
2019-04-20T02:56:08.299Z,100.00
2019-04-20T02:58:34.398Z,100.00
2019-04-20T03:00:55.107Z,100.00
2019-04-20T03:03:10.119Z,100.00
2019-04-20T03:06:04.628Z,100.00
2019-04-20T03:08:30.525Z,100.00
2019-04-20T03:11:09.398Z,100.00
2019-04-20T03:13:32.268Z,100.00
2019-04-20T03:16:09.088Z,100.00
2019-04-20T03:18:33.818Z,100.00
2019-04-20T03:20:58.459Z,100.00
2019-04-20T03:23:35.611Z,100.00
2019-04-20T03:26:05.296Z,100.00
2019-04-20T03:29:01.834Z,100.00
2019-04-20T03:32:03.611Z,100.00
2019-04-20T03:36:44.712Z,100.00
2019-04-20T03:39:01.496Z,100.00
2019-04-20T03:41:22.461Z,100.00
2019-04-20T03:43:43.542Z,100.00
2019-04-20T03:46:14.368Z,100.00
2019-04-20T03:48:56.237Z,100.00
2019-04-20T03:51:37.677Z,100.00
2019-04-20T03:54:13.365Z,100.00
2019-04-20T03:56:54.529Z,100.00
2019-04-20T03:59:45.743Z,100.00
2019-04-20T04:02:29.748Z,100.00
2019-04-20T04:05:04.286Z,100.00
2019-04-20T04:07:22.875Z,100.00
2019-04-20T04:10:03.316Z,100.00
2019-04-20T04:12:56.919Z,100.00
2019-04-20T04:15:25.163Z,100.00
2019-04-20T04:17:58.800Z,100.00
2019-04-20T04:20:34.360Z,100.00
2019-04-20T04:23:10.274Z,100.00
2019-04-20T04:25:33.692Z,100.00
2019-04-20T04:28:06.994Z,100.00
2019-04-20T04:30:35.460Z,100.00
2019-04-20T04:33:32.710Z,100.00
2019-04-20T04:35:29.815Z,100.00
2019-04-20T04:38:08.067Z,100.00
2019-04-20T04:40:42.487Z,100.00
2019-04-20T04:43:05.694Z,100.00
2019-04-20T04:45:17.685Z,100.00
2019-04-20T04:47:45.290Z,100.00
2019-04-20T04:50:17.612Z,100.00
2019-04-20T04:52:52.237Z,100.00
2019-04-20T04:55:23.736Z,100.00
2019-04-20T04:57:41.220Z,100.00
2019-04-20T05:00:10.225Z,100.00
2019-04-20T05:02:45.064Z,100.00
2019-04-20T05:05:36.006Z,100.00
2019-04-20T05:07:58.106Z,100.00
2019-04-20T05:10:14.171Z,100.00
2019-04-20T05:12:42.231Z,100.00
2019-04-20T05:15:24.446Z,100.00
2019-04-20T05:18:01.573Z,100.00
2019-04-20T05:20:30.751Z,100.00
2019-04-20T05:23:12.671Z,100.00
2019-04-20T05:26:11.629Z,100.00
2019-04-20T05:28:27.650Z,100.00
2019-04-20T05:30:48.674Z,100.00
2019-04-20T05:33:25.524Z,100.00
2019-04-20T05:36:01.852Z,100.00
2019-04-20T05:38:37.169Z,100.00
2019-04-20T05:41:01.638Z,100.00
2019-04-20T05:43:33.039Z,100.00
2019-04-20T05:45:58.704Z,100.00
2019-04-20T05:48:27.324Z,100.00
2019-04-20T05:50:57.521Z,100.00
2019-04-20T05:53:34.038Z,100.00
2019-04-20T05:55:55.997Z,100.00
2019-04-20T05:58:32.713Z,100.00
2019-04-20T06:01:08.829Z,99.22
2019-04-20T06:03:28.950Z,98.29
2019-04-20T06:06:05.113Z,97.33
2019-04-20T06:08:38.984Z,97.09
2019-04-20T06:10:55.074Z,97.32
2019-04-20T06:13:32.663Z,96.06
2019-04-20T06:16:07.356Z,95.55
2019-04-20T06:18:40.160Z,95.79
2019-04-20T06:21:26.541Z,95.15
2019-04-20T06:24:15.658Z,95.07
2019-04-20T06:26:52.018Z,93.98
2019-04-20T06:29:07.286Z,93.26
2019-04-20T06:31:39.797Z,92.29
2019-04-20T06:34:30.423Z,92.37
2019-04-20T06:36:50.813Z,91.25
2019-04-20T06:39:26.302Z,90.06
2019-04-20T06:44:26.436Z,85.71
2019-04-20T06:46:55.305Z,83.69
2019-04-20T06:49:25.554Z,82.96
2019-04-20T06:51:57.391Z,82.15
2019-04-20T06:54:18.310Z,82.04
2019-04-20T06:57:00.206Z,81.35
2019-04-20T06:59:33.483Z,79.95
2019-04-20T07:02:20.219Z,79.14
2019-04-20T07:04:40.230Z,77.80
2019-04-20T07:06:56.186Z,77.46
2019-04-20T07:09:32.435Z,76.93
2019-04-20T07:11:50.743Z,77.39
2019-04-20T07:14:06.650Z,76.80
2019-04-20T07:17:02.842Z,76.20
2019-04-20T07:19:28.694Z,76.39
2019-04-20T07:22:25.064Z,75.89
2019-04-20T07:24:53.137Z,74.59
2019-04-20T07:27:13.547Z,73.65
2019-04-20T07:29:49.149Z,72.34
2019-04-20T07:32:07.652Z,71.38
2019-04-20T07:34:38.736Z,71.25
2019-04-20T07:37:41.964Z,71.38
2019-04-20T07:39:48.272Z,71.09
2019-04-20T07:42:19.173Z,70.40
2019-04-20T07:44:49.762Z,68.78
2019-04-20T07:47:13.713Z,68.38
2019-04-20T07:49:44.367Z,68.30
2019-04-20T07:51:51.086Z,67.34
2019-04-20T07:54:49.274Z,66.69
2019-04-20T07:57:04.018Z,67.44
2019-04-20T07:59:27.282Z,67.60
2019-04-20T08:02:24.973Z,66.56
2019-04-20T08:05:07.369Z,66.67
2019-04-20T08:07:17.900Z,66.75
2019-04-20T08:09:54.747Z,66.23
2019-04-20T08:12:54.127Z,67.24
2019-04-20T08:15:22.073Z,67.44
2019-04-20T08:17:51.275Z,67.12
2019-04-20T08:20:09.172Z,66.65
2019-04-20T08:22:42.157Z,65.42
2019-04-20T08:25:06.723Z,64.07
2019-04-20T08:27:23.364Z,62.00
2019-04-20T08:30:21.418Z,61.44
2019-04-20T08:33:04.256Z,61.21
2019-04-20T08:35:39.301Z,61.03
2019-04-20T08:38:33.738Z,61.21
2019-04-20T08:40:37.390Z,60.54
2019-04-20T08:43:10.940Z,59.18
2019-04-20T08:45:42.035Z,59.04
2019-04-20T08:48:12.856Z,58.45
2019-04-20T08:50:35.675Z,57.58
2019-04-20T08:55:29.836Z,57.62
2019-04-20T08:57:42.452Z,58.49
2019-04-20T09:00:11.110Z,59.26
2019-04-20T09:02:41.332Z,58.65
2019-04-20T09:05:18.580Z,57.77
2019-04-20T09:07:50.092Z,58.46
2019-04-20T09:10:32.416Z,56.14
2019-04-20T09:12:53.127Z,55.78
2019-04-20T09:15:08.283Z,54.02
2019-04-20T09:17:46.703Z,53.64
2019-04-20T09:20:14.750Z,54.58
2019-04-20T09:23:33.953Z,56.00
2019-04-20T09:26:10.489Z,55.62
2019-04-20T09:28:33.432Z,55.15
2019-04-20T09:31:29.751Z,55.27
2019-04-20T09:34:07.461Z,54.75
2019-04-20T09:36:38.622Z,55.27
2019-04-20T09:39:33.585Z,55.15
2019-04-20T09:42:09.197Z,53.54
2019-04-20T09:44:41.044Z,53.41
2019-04-20T09:47:07.327Z,52.49
2019-04-20T09:49:45.540Z,51.20
2019-04-20T09:52:26.164Z,50.71
2019-04-20T09:54:51.156Z,50.94
2019-04-20T09:57:25.503Z,52.00
2019-04-20T09:59:55.391Z,51.39
2019-04-20T10:02:12.884Z,50.56
2019-04-20T10:04:31.766Z,50.57
2019-04-20T10:07:05.926Z,50.34
2019-04-20T10:09:32.594Z,50.47
2019-04-20T10:11:57.532Z,50.97
2019-04-20T10:14:24.925Z,51.57
2019-04-20T10:16:52.147Z,51.22
2019-04-20T10:19:24.913Z,49.30
2019-04-20T10:21:48.724Z,48.48
2019-04-20T10:24:16.690Z,46.98
2019-04-20T10:26:44.914Z,45.70
2019-04-20T10:29:13.242Z,45.12
2019-04-20T10:31:46.908Z,45.87
2019-04-20T10:34:09.616Z,46.02
2019-04-20T10:36:57.533Z,44.72
2019-04-20T10:39:25.116Z,44.90
2019-04-20T10:41:56.212Z,43.02
2019-04-20T10:44:21.338Z,39.91
2019-04-20T10:46:49.148Z,40.04
2019-04-20T10:49:17.523Z,39.65
2019-04-20T10:51:44.812Z,38.51
2019-04-20T10:54:12.214Z,38.17
2019-04-20T10:56:39.459Z,37.67
2019-04-20T10:59:07.700Z,37.43
2019-04-20T11:01:35.828Z,36.46
2019-04-20T11:04:03.245Z,36.19
2019-04-20T11:06:30.374Z,35.16
2019-04-20T11:08:58.524Z,36.44
2019-04-20T11:11:28.657Z,36.16
2019-04-20T11:13:55.376Z,35.07
2019-04-20T11:16:22.475Z,34.19
2019-04-20T11:18:49.632Z,33.36
2019-04-20T11:21:19.911Z,33.32
2019-04-20T11:23:46.986Z,32.20
2019-04-20T11:26:14.217Z,30.42
2019-04-20T11:28:42.013Z,30.29
2019-04-20T11:31:10.263Z,29.95
2019-04-20T11:33:38.375Z,29.14
2019-04-20T11:36:07.320Z,29.02
2019-04-20T11:38:35.249Z,28.95
2019-04-20T11:41:11.380Z,28.75
2019-04-20T11:43:31.603Z,29.23
2019-04-20T11:45:58.781Z,29.14
2019-04-20T11:48:25.892Z,28.55
2019-04-20T11:50:53.596Z,27.88
2019-04-20T11:53:21.525Z,27.11
2019-04-20T11:55:48.867Z,27.64
2019-04-20T11:58:16.376Z,28.88
2019-04-20T12:00:56.058Z,27.85
2019-04-20T12:03:28.264Z,27.50
2019-04-20T12:05:53.791Z,27.82
2019-04-20T12:08:20.749Z,27.11
2019-04-20T12:10:53.965Z,26.17
2019-04-20T12:13:18.392Z,25.42
2019-04-20T12:15:45.663Z,24.61
2019-04-20T12:18:13.779Z,25.45
2019-04-20T12:20:41.030Z,24.84
2019-04-20T12:23:08.549Z,24.40
2019-04-20T12:25:36.740Z,24.69
2019-04-20T12:28:05.437Z,23.04
2019-04-20T12:30:33.503Z,23.34
2019-04-20T12:33:02.164Z,22.92
2019-04-20T12:35:30.258Z,22.42
2019-04-20T12:37:58.988Z,22.42
2019-04-20T12:40:26.272Z,22.24
2019-04-20T12:42:53.373Z,21.38
2019-04-20T12:45:21.801Z,20.64
2019-04-20T12:47:51.375Z,19.99
2019-04-20T12:50:19.319Z,20.01
2019-04-20T12:52:46.537Z,19.99
2019-04-20T12:55:14.608Z,20.42
2019-04-20T12:57:42.812Z,19.93
2019-04-20T13:00:11.889Z,20.71
2019-04-20T13:02:39.125Z,19.76
2019-04-20T13:05:07.277Z,18.74
2019-04-20T13:07:39.601Z,18.38
2019-04-20T13:10:05.685Z,19.66
2019-04-20T13:12:52.305Z,19.75
2019-04-20T13:16:00.398Z,19.48
2019-04-20T13:18:47.860Z,19.44
2019-04-20T13:21:14.963Z,19.54
2019-04-20T13:23:42.855Z,18.67
2019-04-20T13:26:10.997Z,18.62
2019-04-20T13:28:39.134Z,18.47
2019-04-20T13:31:11.621Z,18.84
2019-04-20T13:33:39.116Z,18.34
2019-04-20T13:36:06.327Z,17.49
2019-04-20T13:38:34.219Z,18.15
2019-04-20T13:41:03.946Z,18.56
2019-04-20T13:43:32.061Z,18.26
2019-04-20T13:46:00.467Z,17.75
2019-04-20T13:48:28.857Z,17.52
2019-04-20T13:50:56.168Z,18.13
2019-04-20T13:53:23.474Z,17.83
2019-04-20T13:55:50.694Z,18.59
2019-04-20T13:58:38.166Z,18.56
2019-04-20T14:01:31.198Z,18.70
2019-04-20T14:04:19.319Z,19.57
2019-04-20T14:06:47.671Z,19.79
2019-04-20T14:09:21.647Z,19.72
2019-04-20T14:11:51.739Z,19.90
2019-04-20T14:14:19.294Z,19.46
2019-04-20T14:16:47.401Z,19.58
2019-04-20T14:19:14.703Z,19.20
2019-04-20T14:21:41.884Z,19.88
2019-04-20T14:24:09.066Z,19.43
2019-04-20T14:26:40.357Z,19.89
2019-04-20T14:29:05.466Z,19.90
2019-04-20T14:31:52.119Z,19.80
2019-04-20T14:34:20.660Z,20.15
2019-04-20T14:36:48.823Z,19.82
2019-04-20T14:39:16.230Z,20.15
2019-04-20T14:41:44.463Z,19.84
2019-04-20T14:44:12.100Z,18.75
2019-04-20T14:46:40.004Z,18.69
2019-04-20T14:49:07.214Z,18.68
2019-04-20T14:51:35.327Z,19.27
2019-04-20T14:54:03.347Z,19.23
2019-04-20T14:56:31.477Z,18.32
2019-04-20T14:59:07.801Z,18.34
2019-04-20T15:01:50.408Z,18.08
2019-04-20T15:04:20.373Z,18.77
2019-04-20T15:06:46.733Z,18.73
2019-04-20T15:09:14.777Z,19.27
2019-04-20T15:11:44.287Z,18.82
2019-04-20T15:14:11.171Z,18.76
2019-04-20T15:16:38.554Z,18.83
2019-04-20T15:19:31.713Z,19.47
2019-04-20T15:22:00.835Z,19.32
2019-04-20T15:24:29.281Z,20.37
2019-04-20T15:26:56.633Z,20.29
2019-04-20T15:29:24.242Z,22.00
2019-04-20T15:31:54.272Z,21.45
2019-04-20T15:34:23.101Z,20.34
2019-04-20T15:36:50.233Z,19.97
2019-04-20T15:39:17.333Z,20.63
2019-04-20T15:41:45.305Z,20.47
2019-04-20T15:47:24.154Z,20.27
2019-04-20T15:49:51.708Z,20.26
2019-04-20T15:52:24.499Z,20.23
2019-04-20T15:54:49.594Z,21.00
2019-04-20T15:57:23.002Z,21.69
2019-04-20T16:04:01.497Z,22.76
2019-04-20T16:06:29.583Z,22.43
2019-04-20T16:09:00.011Z,23.45
2019-04-20T16:11:28.675Z,22.66
2019-04-20T16:13:57.727Z,23.01
2019-04-20T16:16:25.681Z,24.18
2019-04-20T16:18:52.931Z,23.59
2019-04-20T16:21:24.323Z,24.13
2019-04-20T16:24:16.902Z,23.48
2019-04-20T16:27:05.281Z,23.83
2019-04-20T16:29:33.549Z,24.04
2019-04-20T16:32:00.814Z,24.55
2019-04-20T16:34:27.946Z,25.03
2019-04-20T16:36:57.802Z,24.84
2019-04-20T16:39:24.714Z,24.64
2019-04-20T16:41:54.066Z,24.66
2019-04-20T16:44:21.287Z,25.06
2019-04-20T16:46:48.407Z,25.39
2019-04-20T16:49:16.883Z,25.19
2019-04-20T16:51:45.105Z,25.23
2019-04-20T16:54:12.372Z,25.25
2019-04-20T16:56:39.796Z,25.60
2019-04-20T16:59:10.357Z,26.11
2019-04-20T17:01:37.123Z,25.21
2019-04-20T17:04:10.676Z,25.16
2019-04-20T17:06:34.238Z,25.38
2019-04-20T17:09:01.423Z,25.42
2019-04-20T17:11:29.880Z,25.90
2019-04-20T17:13:59.922Z,26.76
2019-04-20T17:16:26.297Z,27.26
2019-04-20T17:18:53.385Z,27.46
2019-04-20T17:21:25.320Z,27.58
2019-04-20T17:23:51.466Z,27.72
2019-04-20T17:26:29.539Z,27.91
2019-04-20T17:29:10.353Z,27.63
2019-04-20T17:32:09.859Z,27.78
2019-04-20T17:34:54.430Z,28.02
2019-04-20T17:37:06.766Z,28.37
2019-04-20T17:39:45.316Z,29.09
2019-04-20T17:42:20.987Z,29.54
2019-04-20T17:44:52.948Z,29.98
2019-04-20T17:47:35.036Z,30.10
2019-04-20T17:50:02.093Z,30.08
2019-04-20T17:52:33.971Z,30.27
2019-04-20T17:54:45.352Z,30.67
2019-04-20T17:57:13.078Z,30.66
2019-04-20T17:59:51.215Z,31.27
2019-04-20T18:02:53.554Z,31.60
2019-04-20T18:05:27.061Z,31.91
2019-04-20T18:08:02.663Z,32.49
2019-04-20T18:10:26.401Z,32.83
2019-04-20T18:12:57.005Z,33.28
2019-04-20T18:15:43.826Z,33.45
2019-04-20T18:18:35.453Z,33.99
2019-04-20T18:21:10.750Z,34.78
2019-04-20T18:23:44.857Z,34.82
2019-04-20T18:26:35.845Z,35.00
2019-04-20T18:29:03.304Z,35.09
2019-04-20T18:31:15.466Z,35.39
2019-04-20T18:33:44.362Z,35.74
2019-04-20T18:36:13.432Z,36.15
2019-04-20T18:38:49.619Z,36.39
2019-04-20T18:41:21.008Z,36.73
2019-04-20T18:43:46.032Z,36.66
2019-04-20T18:46:22.840Z,36.91
2019-04-20T18:48:54.384Z,37.29
2019-04-20T18:51:05.966Z,37.15
2019-04-20T18:53:39.215Z,37.13
2019-04-20T18:56:04.265Z,37.50
2019-04-20T18:58:31.510Z,38.17
2019-04-20T19:01:19.174Z,38.60
2019-04-20T19:03:47.703Z,39.04
2019-04-20T19:06:16.092Z,39.28
2019-04-20T19:08:49.394Z,39.68
2019-04-20T19:11:21.629Z,39.98
2019-04-20T19:17:16.688Z,39.87
2019-04-20T19:20:34.946Z,39.73
2019-04-20T19:23:02.363Z,40.05
2019-04-20T19:25:34.328Z,39.86
2019-04-20T19:28:01.285Z,40.08
2019-04-20T19:30:37.384Z,39.83
2019-04-20T19:33:17.582Z,39.68
2019-04-20T19:35:40.623Z,39.62
2019-04-20T19:38:09.155Z,39.64
2019-04-20T19:40:38.553Z,39.57
2019-04-20T19:43:11.105Z,39.93
2019-04-20T19:45:51.273Z,40.53
2019-04-20T19:48:12.413Z,40.84
2019-04-20T19:50:50.465Z,41.46
2019-04-20T19:53:21.166Z,41.39
2019-04-20T19:55:40.453Z,41.42
2019-04-20T19:58:10.420Z,41.51
2019-04-20T20:00:46.312Z,41.53
2019-04-20T20:03:12.148Z,41.69
2019-04-20T20:05:44.879Z,41.35
2019-04-20T20:08:14.895Z,41.96
2019-04-20T20:10:40.674Z,41.84
2019-04-20T20:13:43.021Z,41.67
2019-04-20T20:16:10.572Z,42.65
2019-04-20T20:18:46.723Z,42.60
2019-04-20T20:21:16.115Z,42.51
2019-04-20T20:23:32.163Z,42.43
2019-04-20T20:29:38.444Z,42.86
2019-04-20T20:32:15.460Z,43.14
2019-04-20T20:34:36.374Z,43.43
2019-04-20T20:37:04.297Z,43.24
2019-04-20T20:39:32.602Z,43.30
2019-04-20T20:42:13.136Z,43.50
2019-04-20T20:44:38.927Z,43.89
2019-04-20T20:47:20.983Z,43.57
2019-04-20T20:49:48.019Z,43.75
2019-04-20T20:52:17.408Z,43.78
2019-04-20T20:54:37.739Z,44.08
2019-04-20T20:57:07.361Z,44.71
2019-04-20T20:59:42.977Z,45.06
2019-04-20T21:02:06.891Z,44.93
2019-04-20T21:04:29.984Z,44.93
2019-04-20T21:06:58.311Z,45.19
2019-04-20T21:09:27.100Z,45.31
2019-04-20T21:12:00.625Z,45.19
2019-04-20T21:14:29.132Z,45.03
2019-04-20T21:17:01.773Z,45.38
2019-04-20T21:19:55.006Z,45.72
2019-04-20T21:22:13.179Z,45.64
2019-04-20T21:24:37.983Z,45.73
2019-04-20T21:27:08.875Z,45.35
2019-04-20T21:29:40.769Z,45.46
2019-04-20T21:32:09.300Z,46.07
2019-04-20T21:34:33.154Z,46.64
2019-04-20T21:37:04.447Z,46.95
2019-04-20T21:39:39.337Z,47.34
2019-04-20T21:42:12.031Z,47.25
2019-04-20T21:44:37.497Z,47.31
2019-04-20T21:47:03.446Z,47.25
2019-04-20T21:49:43.882Z,47.49
2019-04-20T21:52:03.655Z,47.52
2019-04-20T21:54:29.846Z,47.76
2019-04-20T21:57:08.961Z,47.35
2019-04-20T21:59:40.916Z,47.50
2019-04-20T22:02:12.911Z,47.35
2019-04-20T22:04:33.553Z,47.14
2019-04-20T22:07:00.762Z,47.22
2019-04-20T22:09:37.138Z,47.07
2019-04-20T22:11:58.282Z,47.45
2019-04-20T22:14:29.582Z,47.71
2019-04-20T22:16:57.441Z,47.89
2019-04-20T22:19:36.764Z,47.88
2019-04-20T22:22:05.562Z,47.50
2019-04-20T22:24:40.308Z,47.55
2019-04-20T22:27:04.968Z,47.55
2019-04-20T22:29:21.850Z,48.14
2019-04-20T22:31:53.472Z,48.21
2019-04-20T22:34:21.339Z,48.31
2019-04-20T22:36:48.718Z,48.68
2019-04-20T22:39:42.134Z,51.32
2019-04-20T22:42:10.815Z,52.86
2019-04-20T22:44:36.349Z,54.34
2019-04-20T22:47:23.338Z,55.23
2019-04-20T22:50:11.905Z,56.26
2019-04-20T22:52:36.246Z,57.11
2019-04-20T22:55:01.233Z,57.73
2019-04-20T22:57:31.772Z,58.42
2019-04-20T22:59:53.956Z,58.32
2019-04-20T23:02:13.597Z,57.38
2019-04-20T23:04:40.868Z,56.40
2019-04-20T23:07:08.544Z,55.18
2019-04-20T23:09:43.796Z,54.40
2019-04-20T23:12:11.332Z,54.14
2019-04-20T23:14:34.293Z,54.18
2019-04-20T23:17:02.145Z,54.05
2019-04-20T23:19:38.236Z,53.32
2019-04-20T23:22:02.905Z,52.78
2019-04-20T23:24:29.047Z,53.16
2019-04-20T23:26:57.387Z,52.98
2019-04-20T23:29:27.227Z,52.78
2019-04-20T23:31:59.616Z,52.91
2019-04-20T23:34:25.549Z,53.15
2019-04-20T23:36:52.563Z,53.12
2019-04-20T23:39:23.334Z,53.50
2019-04-20T23:41:55.374Z,54.34
2019-04-20T23:44:29.246Z,54.59
2019-04-20T23:47:18.358Z,54.68
2019-04-20T23:50:03.375Z,54.64
2019-04-20T23:52:42.453Z,54.53
2019-04-20T23:54:54.303Z,54.98
2019-04-20T23:57:17.585Z,55.51
2019-04-20T23:59:46.649Z,56.12
